This is the latest recevied weather packets stored in our database for station/object W8KJR. If no packets are shown the sender has not sent any weather packets the latest 10 day(s).
| Time | Temp. | Humidity | Pressure | Rain* | Wind** | Luminosity | Snow |
|---|---|---|---|---|---|---|---|
| 1777966661 | 17.22° C | 70% | 1002.9 hPa | 0 mm | - | - | - |
| 1777965757 | 16.67° C | 72% | 1002.9 hPa | 0 mm | - | - | - |
| 1777964854 | 17.22° C | 70% | 1002.6 hPa | 0 mm | - | - | - |
| 1777963948 | 17.78° C | 69% | 1003 hPa | 0 mm | - | - | - |
| 1777963046 | 18.33° C | 66% | 1002.7 hPa | 0 mm | - | - | - |
| 1777962142 | 18.89° C | 63% | 1002.6 hPa | 0 mm | - | - | - |
| 1777961240 | 19.44° C | 62% | 1002.4 hPa | 0 mm | - | - | - |
| 1777960341 | 19.44° C | 62% | 1002.1 hPa | 0 mm | - | - | - |
| 1777959454 | 18.89° C | 62% | 1002 hPa | 0 mm | - | - | - |
| 1777958536 | 19.44° C | 62% | 1001.9 hPa | 0 mm | - | - | - |
| 1777957635 | 19.44° C | 61% | 1001.9 hPa | 0 mm | - | - | - |
| 1777956732 | 19.44° C | 61% | 1001.9 hPa | 0 mm | - | - | - |
| 1777955827 | 19.44° C | 62% | 1002.1 hPa | 0 mm | - | - | - |
| 1777954923 | 19.44° C | 61% | 1002.2 hPa | 0 mm | - | - | - |
| 1777954024 | 19.44° C | 60% | 1002.1 hPa | 0 mm | - | - | - |
| 1777953116 | 19.44° C | 62% | 1002.3 hPa | 0 mm | - | - | - |
| 1777952212 | 19.44° C | 61% | 1002.5 hPa | 0 mm | - | - | - |
| 1777951310 | 19.44° C | 62% | 1002.6 hPa | 0 mm | - | - | - |
| 1777950406 | 19.44° C | 61% | 1002.8 hPa | 0 mm | - | - | - |
| 1777949502 | 19.44° C | 61% | 1002.6 hPa | 0 mm | - | - | - |
| 1777948599 | 18.89° C | 63% | 1002.5 hPa | 0 mm | - | - | - |
| 1777947697 | 18.89° C | 63% | 1002.6 hPa | 0 mm | - | - | - |
| 1777946792 | 19.44° C | 63% | 1002.3 hPa | 0 mm | - | - | - |
| 1777945887 | 20° C | 60% | 1002.5 hPa | 0 mm | - | - | - |
| 1777944985 | 20° C | 59% | 1002.6 hPa | 0 mm | - | - | - |
* Rain latest hour (hover to see other rain measurements)
** Current wind speed in m/s (hover to see current wind gust speed)